Ledeberg, Belgium
Current Conditions -  °F | °C
As of 3:25 AM on Saturday 29 Nov 2014 (Local Time) from EHFS Reporting Station
Clear Clear  
Wind Chill: 37°   Ceiling: Unl
Heat Index: 45°   Visibility: 5mi
Dew Point: 41°   Wind: 17mph
Humidity: 87%   Direction: 100°E
Pressure: 29.83"   Gusts: NA
Location:  51.04°N, 3.74°E
Report Text: EHFS 290225Z AUTO 10015KT 080V150 8000 NSC 07/05 Q1010
Loading
Personal Weather Stations






























Interactive Weather Map New forecast layout! Learn more

10-Day Weather Forecast

Advertisements
Track Severe Weather on mobile